createdAt,value
2023-02-03T00:00:34.520Z,100692.03
2023-02-03T00:03:02.995Z,100692.71
2023-02-03T00:05:32.621Z,100688.89
2023-02-03T00:08:01.435Z,100688.76
2023-02-03T00:10:29.999Z,100689.89
2023-02-03T00:12:59.414Z,100694.40
2023-02-03T00:15:30.443Z,100694.28
2023-02-03T00:18:01.028Z,100692.98
2023-02-03T00:20:29.848Z,100692.60
2023-02-03T00:23:06.071Z,100697.48
2023-02-03T00:25:39.176Z,100696.67
2023-02-03T00:28:08.752Z,100703.43
2023-02-03T00:30:40.201Z,100703.20
2023-02-03T00:33:08.635Z,100700.05
2023-02-03T00:35:40.687Z,100700.39
2023-02-03T00:38:11.045Z,100698.96
2023-02-03T00:40:40.586Z,100700.36
2023-02-03T00:43:11.526Z,100701.76
2023-02-03T00:45:40.835Z,100701.05
2023-02-03T00:48:09.067Z,100701.88
2023-02-03T00:50:37.670Z,100705.15
2023-02-03T00:53:06.502Z,100707.85
2023-02-03T00:55:35.665Z,100710.76
2023-02-03T00:58:06.197Z,100711.20
2023-02-03T01:00:35.669Z,100707.75
2023-02-03T01:03:04.357Z,100709.17
2023-02-03T01:05:33.082Z,100708.13
2023-02-03T01:08:02.129Z,100703.44
2023-02-03T01:10:31.269Z,100708.95
2023-02-03T01:13:02.856Z,100711.37
2023-02-03T01:15:31.765Z,100710.83
2023-02-03T01:18:01.982Z,100712.48
2023-02-03T01:20:30.943Z,100711.98
2023-02-03T01:23:00.879Z,100709.39
2023-02-03T01:25:31.520Z,100710.52
2023-02-03T01:28:00.353Z,100710.55
2023-02-03T01:30:29.407Z,100708.75
2023-02-03T01:32:58.109Z,100712.48
2023-02-03T01:35:27.333Z,100714.36
2023-02-03T01:37:55.650Z,100711.54
2023-02-03T01:40:24.424Z,100708.13
2023-02-03T01:42:52.882Z,100709.10
2023-02-03T01:45:21.202Z,100705.40
2023-02-03T01:47:51.286Z,100709.83
2023-02-03T01:50:32.076Z,100706.92
2023-02-03T01:53:09.061Z,100711.44
2023-02-03T01:55:45.415Z,100714.55
2023-02-03T01:58:20.407Z,100714.23
2023-02-03T02:00:50.881Z,100718.48
2023-02-03T02:03:20.692Z,100720.30
2023-02-03T02:05:51.078Z,100720.27
2023-02-03T02:08:19.491Z,100721.32
2023-02-03T02:10:48.085Z,100719.63
2023-02-03T02:13:17.328Z,100720.83
2023-02-03T02:16:15.333Z,100723.25
2023-02-03T02:18:49.845Z,100725.27
2023-02-03T02:21:24.993Z,100725.39
2023-02-03T02:24:12.270Z,100725.77
2023-02-03T02:27:08.220Z,100728.69
2023-02-03T02:30:15.528Z,100727.24
2023-02-03T02:32:55.116Z,100733.92
2023-02-03T02:35:34.028Z,100730.33
2023-02-03T02:38:22.706Z,100728.48
2023-02-03T02:41:17.039Z,100727.58
2023-02-03T02:44:01.244Z,100728.36
2023-02-03T02:46:51.893Z,100724.80
2023-02-03T02:49:35.804Z,100722.40
2023-02-03T02:52:05.352Z,100723.89
2023-02-03T02:54:39.777Z,100724.06
2023-02-03T02:57:10.593Z,100727.98
2023-02-03T02:59:40.627Z,100725.13
2023-02-03T03:02:12.963Z,100725.59
2023-02-03T03:04:41.686Z,100723.04
2023-02-03T03:07:14.203Z,100726.80
2023-02-03T03:09:51.204Z,100723.23
2023-02-03T03:12:23.102Z,100722.42
2023-02-03T03:15:01.584Z,100724.10
2023-02-03T03:18:01.839Z,100721.69
2023-02-03T03:20:31.260Z,100720.70
2023-02-03T03:23:04.655Z,100717.95
2023-02-03T03:25:52.372Z,100715.38
2023-02-03T03:28:27.132Z,100715.41
2023-02-03T03:30:55.882Z,100714.01
2023-02-03T03:33:24.381Z,100719.08
2023-02-03T03:36:05.828Z,100721.98
2023-02-03T03:38:49.827Z,100719.02
2023-02-03T03:42:01.873Z,100729.31
2023-02-03T03:44:35.348Z,100731.94
2023-02-03T03:47:16.522Z,100731.63
2023-02-03T03:49:45.965Z,100731.40
2023-02-03T03:52:21.724Z,100727.59
2023-02-03T03:54:50.856Z,100729.16
2023-02-03T03:57:39.037Z,100728.79
2023-02-03T04:00:12.127Z,100728.83
2023-02-03T04:02:40.874Z,100727.50
2023-02-03T04:05:09.354Z,100728.63
2023-02-03T04:07:45.610Z,100728.82
2023-02-03T04:10:30.513Z,100728.98
2023-02-03T04:13:00.464Z,100727.32
2023-02-03T04:15:30.948Z,100735.48
2023-02-03T04:18:01.766Z,100730.16
2023-02-03T04:20:32.354Z,100728.38
2023-02-03T04:23:00.689Z,100733.15
2023-02-03T04:25:29.289Z,100731.83
2023-02-03T04:28:01.159Z,100736.60
2023-02-03T04:30:31.523Z,100738.06
2023-02-03T04:33:02.738Z,100730.70
2023-02-03T04:35:31.460Z,100735.52
2023-02-03T04:38:03.126Z,100735.91
2023-02-03T04:40:34.672Z,100738.50
2023-02-03T04:43:08.996Z,100741.02
2023-02-03T04:45:38.492Z,100744.48
2023-02-03T04:48:09.517Z,100751.80
2023-02-03T04:50:39.501Z,100752.88
2023-02-03T04:53:09.851Z,100752.70
2023-02-03T04:55:43.898Z,100752.93
2023-02-03T05:01:20.292Z,100758.38
2023-02-03T05:03:53.193Z,100755.59
2023-02-03T05:09:15.890Z,100766.62
2023-02-03T05:11:47.169Z,100771.38
2023-02-03T05:14:16.696Z,100768.52
2023-02-03T05:16:58.489Z,100772.66
2023-02-03T05:19:57.545Z,100769.88
2023-02-03T05:22:29.308Z,100771.06
2023-02-03T05:25:00.260Z,100780.39
2023-02-03T05:27:31.896Z,100781.21
2023-02-03T05:30:01.114Z,100781.70
2023-02-03T05:32:33.179Z,100780.52
2023-02-03T05:35:12.589Z,100780.60
2023-02-03T05:37:50.984Z,100784.16
2023-02-03T05:43:41.870Z,100791.52
2023-02-03T05:46:17.764Z,100786.46
2023-02-03T05:48:49.383Z,100786.27
2023-02-03T05:51:31.790Z,100790.17
2023-02-03T05:54:03.997Z,100788.94
2023-02-03T05:56:58.332Z,100789.68
2023-02-03T06:00:00.701Z,100787.65
2023-02-03T06:02:31.285Z,100787.75
2023-02-03T06:05:04.240Z,100787.98
2023-02-03T06:10:31.018Z,100795.14
2023-02-03T06:13:17.824Z,100796.33
2023-02-03T06:22:03.457Z,100797.50
2023-02-03T06:27:37.972Z,100802.88
2023-02-03T06:33:33.119Z,100808.97
2023-02-03T07:25:59.879Z,100836.91
2023-02-03T07:38:22.917Z,100831.38
2023-02-03T07:41:17.705Z,100828.33
2023-02-03T07:57:36.795Z,100818.84
2023-02-03T08:45:46.593Z,100811.44
2023-02-03T08:48:37.074Z,100805.25
2023-02-03T09:03:42.587Z,100789.43
2023-02-03T09:06:26.669Z,100787.80
2023-02-03T09:17:45.805Z,100781.90
2023-02-03T09:29:27.826Z,100774.36
2023-02-03T09:32:08.699Z,100778.20
2023-02-03T09:34:37.824Z,100776.34
2023-02-03T09:37:06.131Z,100771.90
2023-02-03T09:39:34.570Z,100775.60
2023-02-03T09:42:51.279Z,100772.90
2023-02-03T09:48:53.055Z,100763.89
2023-02-03T09:51:35.408Z,100754.77
2023-02-03T09:54:19.672Z,100751.84
2023-02-03T09:56:52.978Z,100750.33
2023-02-03T09:59:24.524Z,100747.19
2023-02-03T10:02:09.686Z,100746.39
2023-02-03T10:04:40.511Z,100743.59
2023-02-03T10:07:45.958Z,100738.77
2023-02-03T10:10:35.653Z,100734.54
2023-02-03T10:13:22.079Z,100733.92
2023-02-03T10:18:51.994Z,100724.94
2023-02-03T10:21:38.201Z,100730.50
2023-02-03T10:24:15.301Z,100733.55
2023-02-03T10:26:51.750Z,100732.36
2023-02-03T10:29:27.639Z,100728.27
2023-02-03T10:31:58.905Z,100724.20
2023-02-03T10:34:31.549Z,100720.58
2023-02-03T10:40:18.647Z,100713.67
2023-02-03T10:43:19.901Z,100704.41
2023-02-03T10:45:52.409Z,100705.03
2023-02-03T10:48:33.703Z,100704.64
2023-02-03T10:51:06.080Z,100696.59
2023-02-03T10:53:36.697Z,100692.92
2023-02-03T10:56:09.579Z,100695.29
2023-02-03T10:58:38.859Z,100694.77
2023-02-03T11:01:11.930Z,100692.61
2023-02-03T11:03:45.045Z,100692.33
2023-02-03T11:06:14.370Z,100689.34
2023-02-03T11:08:44.726Z,100690.29
2023-02-03T11:11:15.374Z,100695.41
2023-02-03T11:13:43.590Z,100699.90
2023-02-03T11:16:14.499Z,100703.25
2023-02-03T11:19:09.700Z,100698.10
2023-02-03T11:21:39.532Z,100707.45
2023-02-03T11:24:13.870Z,100704.27
2023-02-03T11:26:58.904Z,100701.36
2023-02-03T11:29:28.599Z,100696.21
2023-02-03T11:31:58.637Z,100693.29
2023-02-03T11:34:38.280Z,100685.88
2023-02-03T11:37:26.397Z,100677.56
2023-02-03T11:40:07.093Z,100675.85
2023-02-03T11:42:36.764Z,100673.85
2023-02-03T11:45:44.858Z,100671.86
2023-02-03T11:48:22.200Z,100664.89
2023-02-03T11:50:56.722Z,100661.75
2023-02-03T11:53:56.678Z,100656.65
2023-02-03T11:56:28.614Z,100652.41
2023-02-03T11:59:20.741Z,100650.17
2023-02-03T12:02:27.383Z,100651.84
2023-02-03T12:05:01.667Z,100651.85
2023-02-03T12:08:08.840Z,100647.36
2023-02-03T12:10:52.096Z,100645.34
2023-02-03T12:13:34.161Z,100643.37
2023-02-03T12:16:24.867Z,100648.16
2023-02-03T12:19:15.152Z,100650.71
2023-02-03T12:21:49.429Z,100660.70
2023-02-03T12:24:41.231Z,100662.61
2023-02-03T12:27:31.098Z,100659.88
2023-02-03T12:30:07.440Z,100661.21
2023-02-03T12:32:55.883Z,100660.00
2023-02-03T12:35:39.298Z,100659.27
2023-02-03T12:38:13.227Z,100660.92
2023-02-03T12:40:49.156Z,100659.47
2023-02-03T12:43:42.398Z,100658.91
2023-02-03T12:46:20.919Z,100655.84
2023-02-03T12:48:52.160Z,100654.01
2023-02-03T12:51:28.857Z,100646.85
2023-02-03T12:54:00.266Z,100646.98
2023-02-03T12:56:34.304Z,100643.76
2023-02-03T12:59:07.188Z,100644.52
2023-02-03T13:01:47.947Z,100640.20
2023-02-03T13:04:47.741Z,100638.79
2023-02-03T13:07:18.366Z,100640.06
2023-02-03T13:10:13.986Z,100639.80
2023-02-03T13:12:47.870Z,100631.47
2023-02-03T13:15:20.971Z,100633.88
2023-02-03T13:17:57.292Z,100637.86
2023-02-03T13:20:29.262Z,100634.63
2023-02-03T13:22:58.182Z,100634.30
2023-02-03T13:25:42.177Z,100631.71
2023-02-03T13:28:28.685Z,100635.27
2023-02-03T13:31:21.804Z,100634.19
2023-02-03T13:33:57.183Z,100633.27
2023-02-03T13:36:38.970Z,100634.83
2023-02-03T13:39:34.196Z,100631.67
2023-02-03T13:42:24.721Z,100631.95
2023-02-03T13:45:03.693Z,100630.77
2023-02-03T13:47:32.009Z,100632.50
2023-02-03T13:50:02.977Z,100633.06
2023-02-03T13:52:57.807Z,100633.42
2023-02-03T13:55:59.206Z,100634.70
2023-02-03T13:58:38.075Z,100630.98
2023-02-03T14:01:45.950Z,100634.45
2023-02-03T14:04:26.029Z,100630.71
2023-02-03T14:07:01.349Z,100629.84
2023-02-03T14:09:34.385Z,100628.52
2023-02-03T14:12:15.276Z,100625.88
2023-02-03T14:14:45.639Z,100630.67
2023-02-03T14:17:36.443Z,100627.08
2023-02-03T14:20:08.848Z,100628.59
2023-02-03T14:22:37.643Z,100627.58
2023-02-03T14:25:06.186Z,100628.50
2023-02-03T14:27:34.734Z,100625.67
2023-02-03T14:30:09.480Z,100619.65
2023-02-03T14:32:58.038Z,100620.42
2023-02-03T14:35:40.638Z,100620.16
2023-02-03T14:38:13.431Z,100620.16
2023-02-03T14:40:45.892Z,100616.44
2023-02-03T14:43:48.754Z,100616.45
2023-02-03T14:46:35.498Z,100615.55
2023-02-03T14:49:06.892Z,100617.10
2023-02-03T14:51:54.712Z,100611.96
2023-02-03T14:54:27.352Z,100615.09
2023-02-03T14:57:21.347Z,100613.89
2023-02-03T14:59:58.943Z,100614.67
2023-02-03T15:02:31.120Z,100616.45
2023-02-03T15:05:14.860Z,100616.79
2023-02-03T15:07:46.563Z,100616.16
2023-02-03T15:10:16.304Z,100615.29
2023-02-03T15:12:49.732Z,100616.84
2023-02-03T15:15:28.547Z,100614.72
2023-02-03T15:17:58.304Z,100619.61
2023-02-03T15:20:41.658Z,100615.98
2023-02-03T15:23:20.697Z,100616.88
2023-02-03T15:26:03.544Z,100618.02
2023-02-03T15:28:31.770Z,100614.70
2023-02-03T15:31:15.205Z,100611.42
2023-02-03T15:33:44.755Z,100613.67
2023-02-03T15:36:22.054Z,100614.81
2023-02-03T15:38:55.781Z,100617.09
2023-02-03T15:41:24.833Z,100619.44
2023-02-03T15:43:58.784Z,100623.16
2023-02-03T15:46:38.171Z,100622.18
2023-02-03T15:49:17.763Z,100620.94
2023-02-03T15:51:51.585Z,100622.40
2023-02-03T15:54:24.956Z,100618.99
2023-02-03T15:57:05.571Z,100621.52
2023-02-03T15:59:42.555Z,100621.06
2023-02-03T16:02:34.201Z,100621.61
2023-02-03T16:05:28.933Z,100618.52
2023-02-03T16:07:57.453Z,100623.71
2023-02-03T16:10:29.063Z,100624.46
2023-02-03T16:13:26.544Z,100624.39
2023-02-03T16:16:05.905Z,100627.52
2023-02-03T16:18:36.854Z,100630.71
2023-02-03T16:21:05.113Z,100629.95
2023-02-03T16:23:33.536Z,100631.64
2023-02-03T16:26:17.786Z,100625.42
2023-02-03T16:29:25.195Z,100625.92
2023-02-03T16:32:12.266Z,100623.64
2023-02-03T16:34:59.215Z,100623.16
2023-02-03T16:37:53.753Z,100623.27
2023-02-03T16:40:41.636Z,100623.21
2023-02-03T16:43:33.417Z,100623.89
2023-02-03T16:46:29.133Z,100620.64
2023-02-03T16:49:15.994Z,100619.19
2023-02-03T16:51:44.163Z,100622.44
2023-02-03T16:54:13.975Z,100623.33
2023-02-03T16:56:42.697Z,100622.80
2023-02-03T16:59:11.227Z,100620.84
2023-02-03T17:01:41.787Z,100619.20
2023-02-03T17:04:11.693Z,100617.77
2023-02-03T17:06:40.279Z,100615.20
2023-02-03T17:09:12.440Z,100613.09
2023-02-03T17:11:40.607Z,100612.07
2023-02-03T17:14:09.248Z,100612.84
2023-02-03T17:16:37.455Z,100607.30
2023-02-03T17:19:05.765Z,100605.04
2023-02-03T17:21:34.036Z,100604.74
2023-02-03T17:24:02.471Z,100605.78
2023-02-03T17:26:30.746Z,100605.36
2023-02-03T17:29:03.291Z,100603.69
2023-02-03T17:31:31.997Z,100603.30
2023-02-03T17:34:00.921Z,100605.81
2023-02-03T17:36:29.277Z,100601.97
2023-02-03T17:55:33.834Z,100599.10
2023-02-03T17:58:04.050Z,100599.66
2023-02-03T18:00:32.884Z,100597.64
2023-02-03T18:03:01.261Z,100593.21
2023-02-03T18:05:30.058Z,100595.88
2023-02-03T18:08:03.026Z,100591.94
2023-02-03T18:10:37.409Z,100590.01
2023-02-03T18:13:07.810Z,100587.69
2023-02-03T18:15:37.977Z,100590.09
2023-02-03T18:18:08.094Z,100586.34
2023-02-03T18:20:36.374Z,100580.41
2023-02-03T18:23:05.021Z,100580.38
2023-02-03T18:25:35.817Z,100574.42
2023-02-03T18:28:04.779Z,100573.98
2023-02-03T18:30:33.763Z,100579.11
2023-02-03T18:33:03.894Z,100574.46
2023-02-03T18:35:33.504Z,100574.45
2023-02-03T18:38:03.439Z,100567.36
2023-02-03T18:40:32.192Z,100566.17
2023-02-03T18:43:02.453Z,100563.33
2023-02-03T18:45:31.090Z,100562.17
2023-02-03T18:47:59.415Z,100555.88
2023-02-03T18:50:28.122Z,100554.65
2023-02-03T18:52:56.799Z,100556.10
2023-02-03T18:55:25.080Z,100550.20
2023-02-03T18:57:53.637Z,100550.30
2023-02-03T19:00:21.866Z,100550.05
2023-02-03T19:02:50.440Z,100549.79
2023-02-03T19:05:19.720Z,100548.38
2023-02-03T19:07:48.468Z,100547.27
2023-02-03T19:10:17.542Z,100545.08
2023-02-03T19:12:48.006Z,100549.01
2023-02-03T19:15:16.829Z,100546.69
2023-02-03T19:17:46.221Z,100539.00
2023-02-03T19:20:14.636Z,100539.06
2023-02-03T19:22:44.404Z,100537.37
2023-02-03T19:25:13.394Z,100535.00
2023-02-03T19:27:41.805Z,100536.64
2023-02-03T19:30:11.623Z,100537.94
2023-02-03T19:32:42.626Z,100536.61
2023-02-03T19:35:11.010Z,100532.80
2023-02-03T19:37:39.346Z,100532.52
2023-02-03T19:40:08.316Z,100538.17
2023-02-03T19:42:37.907Z,100537.44
2023-02-03T19:45:07.125Z,100539.02
2023-02-03T19:47:35.295Z,100541.17
2023-02-03T19:50:04.800Z,100539.45
2023-02-03T19:52:33.359Z,100533.81
2023-02-03T19:55:01.539Z,100536.43
2023-02-03T19:57:30.010Z,100532.27
2023-02-03T19:59:58.409Z,100529.34
2023-02-03T20:02:27.094Z,100527.13
2023-02-03T20:04:55.953Z,100528.40
2023-02-03T20:07:28.668Z,100525.35
2023-02-03T20:09:57.489Z,100520.19
2023-02-03T20:12:26.091Z,100517.36
2023-02-03T20:14:54.496Z,100522.27
2023-02-03T20:17:22.588Z,100518.40
2023-02-03T20:19:50.774Z,100516.73
2023-02-03T20:22:18.912Z,100520.00
2023-02-03T20:24:47.174Z,100522.45
2023-02-03T20:27:15.562Z,100518.95
2023-02-03T20:29:44.388Z,100516.73
2023-02-03T20:32:12.525Z,100510.84
2023-02-03T20:34:40.890Z,100509.20
2023-02-03T20:37:09.153Z,100506.26
2023-02-03T20:39:37.978Z,100506.77
2023-02-03T20:42:15.888Z,100509.60
2023-02-03T20:44:44.289Z,100504.33
2023-02-03T20:47:13.531Z,100504.28
2023-02-03T20:49:41.792Z,100506.60
2023-02-03T20:52:11.617Z,100506.59
2023-02-03T20:54:40.475Z,100509.27
2023-02-03T20:57:18.966Z,100508.31
2023-02-03T20:59:47.773Z,100510.25
2023-02-03T21:02:23.369Z,100503.64
2023-02-03T21:04:57.847Z,100511.13
2023-02-03T21:07:27.680Z,100506.97
2023-02-03T21:09:56.867Z,100508.58
2023-02-03T21:12:25.334Z,100506.95
2023-02-03T21:14:55.275Z,100506.48
2023-02-03T21:17:25.854Z,100510.63
2023-02-03T21:19:54.468Z,100506.54
2023-02-03T21:22:27.261Z,100510.12
2023-02-03T21:24:59.836Z,100505.30
2023-02-03T21:27:32.522Z,100503.08
2023-02-03T21:30:02.652Z,100503.77
2023-02-03T21:32:38.574Z,100502.02
2023-02-03T21:35:26.677Z,100501.45
2023-02-03T21:38:01.940Z,100496.79
2023-02-03T21:40:32.487Z,100497.63
2023-02-03T21:43:02.228Z,100499.77
2023-02-03T21:45:43.795Z,100496.15
2023-02-03T21:48:26.196Z,100496.64
2023-02-03T21:50:56.547Z,100493.20
2023-02-03T21:53:35.247Z,100489.85
2023-02-03T21:56:17.869Z,100490.32
2023-02-03T21:58:47.669Z,100482.81
2023-02-03T22:01:19.249Z,100481.90
2023-02-03T22:03:49.737Z,100476.83
2023-02-03T22:06:24.226Z,100476.59
2023-02-03T22:08:54.553Z,100475.47
2023-02-03T22:11:24.427Z,100472.88
2023-02-03T22:13:53.201Z,100471.60
2023-02-03T22:16:21.684Z,100469.86
2023-02-03T22:18:49.937Z,100471.81
2023-02-03T22:21:18.537Z,100470.67
2023-02-03T22:23:47.142Z,100464.09
2023-02-03T22:26:16.748Z,100459.95
2023-02-03T22:28:45.397Z,100458.35
2023-02-03T22:31:14.503Z,100458.59
2023-02-03T22:33:43.179Z,100457.48
2023-02-03T22:36:11.788Z,100455.14
2023-02-03T22:38:40.402Z,100455.15
2023-02-03T22:41:09.467Z,100450.14
2023-02-03T22:43:37.634Z,100447.64
2023-02-03T22:46:06.981Z,100442.22
2023-02-03T22:48:35.365Z,100443.96
2023-02-03T22:51:05.127Z,100441.55
2023-02-03T22:53:34.916Z,100444.88
2023-02-03T22:56:03.221Z,100444.47
2023-02-03T22:58:31.791Z,100450.38
2023-02-03T23:01:00.426Z,100451.46
2023-02-03T23:03:32.257Z,100451.58
2023-02-03T23:06:00.613Z,100448.34
2023-02-03T23:08:28.763Z,100452.15
2023-02-03T23:10:56.988Z,100449.39
2023-02-03T23:13:26.903Z,100455.94
2023-02-03T23:15:55.515Z,100453.55
2023-02-03T23:18:23.937Z,100456.95
2023-02-03T23:20:52.545Z,100455.50
2023-02-03T23:23:20.793Z,100453.09
2023-02-03T23:25:49.294Z,100453.02
2023-02-03T23:28:17.572Z,100449.55
2023-02-03T23:30:46.052Z,100451.98
2023-02-03T23:33:14.610Z,100448.83
2023-02-03T23:35:45.635Z,100448.98
2023-02-03T23:38:14.637Z,100451.82
2023-02-03T23:40:43.452Z,100450.24
2023-02-03T23:43:11.945Z,100445.14
2023-02-03T23:45:40.646Z,100446.59
2023-02-03T23:48:09.510Z,100448.87
2023-02-03T23:50:38.335Z,100446.64
2023-02-03T23:53:06.971Z,100449.88
2023-02-03T23:55:36.558Z,100448.02
2023-02-03T23:58:05.310Z,100449.77
